D/T METAR WX W/DIR W/SPE G/SPE TEMP DEWP
19/03/19 02:50 EGXT 190250Z AUTO 23004KT 9999 BKN011/// BKN035/// 07/06 Q1023 REDZ SW (230°) 4.6mph 7°C 6°C
19/03/19 01:50 EGXT 190150Z AUTO 23004KT 2100 -DZ FEW016/// BKN036/// 07/06 Q1023 -DZ SW (230°) 4.6mph 7°C 6°C
19/03/19 00:50 EGXT 190050Z AUTO 21003KT 9999 SCT024/// BKN035/// BKN045/// 07/05 Q1023 SSW (210°) 3.5mph 7°C 5°C
18/03/19 23:50 EGXT 182350Z AUTO 22003KT 9999 BKN027/// BKN035/// 07/05 Q1022 SW (220°) 3.5mph 7°C 5°C
18/03/19 22:50 EGXT 182250Z AUTO 23004KT 9999 SCT034/// BKN039/// 07/05 Q1022 SW (230°) 4.6mph 7°C 5°C
18/03/19 21:50 EGXT 182150Z AUTO 25004KT 9999 FEW024/// BKN043/// 07/05 Q1022 WSW (250°) 4.6mph 7°C 5°C
18/03/19 20:50 EGXT 182050Z AUTO 25006KT 9999 BKN048/// 07/05 Q1022 WSW (250°) 6.9mph 7°C 5°C
18/03/19 19:50 EGXT 181950Z AUTO 25004KT 9999 SCT043/// SCT050/// BKN090/// 07/04 Q1022 WSW (250°) 4.6mph 7°C 4°C
18/03/19 18:50 EGXT 181850Z AUTO 25006KT 9999 FEW040/// SCT100/// 06/03 Q1021 WSW (250°) 6.9mph 6°C 3°C
18/03/19 17:50 EGXT 181750Z AUTO 25005KT 9999 FEW050/// 07/03 Q1020 WSW (250°) 5.8mph 7°C 3°C
18/03/19 16:50 EGXT 181650Z AUTO 26009KT 9999 FEW030/// 09/03 Q1020 W (260°) 10.4mph 9°C 3°C
18/03/19 15:50 EGXT 181550Z 25011KT 9999 FEW031 SCT060 10/03 Q1019 BLU WSW (250°) 12.7mph 10°C 3°C
18/03/19 14:50 EGXT 181450Z 26012KT 9999 FEW030 SCT060 BKN100 10/03 Q1019 BLU W (260°) 13.8mph 10°C 3°C
18/03/19 13:50 EGXT 181350Z 28012KT 9999 FEW032 SCT050 10/04 Q1019 BLU W (280°) 13.8mph 10°C 4°C
18/03/19 12:50 EGXT 181250Z 30012KT 9999 SCT029 BKN070 10/03 Q1019 BLU WNW (300°) 13.8mph 10°C 3°C
18/03/19 11:50 EGXT 181150Z 29012KT 9999 FEW024 SCT034 BKN110 10/04 Q1019 BLU WNW (290°) 13.8mph 10°C 4°C
18/03/19 10:50 EGXT 181050Z 29013KT CAVOK 09/04 Q1019 BLU WNW (290°) 15.0mph 9°C 4°C
18/03/19 09:50 EGXT 180950Z 28014KT 9999 FEW017 SCT120 08/04 Q1018 BLU W (280°) 16.1mph 8°C 4°C
18/03/19 08:50 EGXT 180850Z AUTO 28008KT 9999 SCT130/// 07/04 Q1018 W (280°) 9.2mph 7°C 4°C
18/03/19 07:50 EGXT 180750Z AUTO 25007KT 9999 FEW130/// BKN160/// 05/03 Q1017 WSW (250°) 8.1mph 5°C 3°C
18/03/19 06:50 EGXT 180650Z AUTO 26009KT 9999 OVC120/// 04/03 Q1017 W (260°) 10.4mph 4°C 3°C
18/03/19 05:50 EGXT 180550Z AUTO 28009KT 9999 OVC140/// 04/03 Q1016 W (280°) 10.4mph 4°C 3°C
18/03/19 04:50 EGXT 180450Z AUTO 27009KT 9999 BKN160/// 04/02 Q1016 W (270°) 10.4mph 4°C 2°C
18/03/19 03:50 EGXT 180350Z AUTO 29009KT 9999 FEW048/// BKN200/// 05/03 Q1015 WNW (290°) 10.4mph 5°C 3°C
18/03/19 02:50 EGXT 180250Z AUTO 29011KT 9999 SCT060/// SCT230/// 04/02 Q1014 WNW (290°) 12.7mph 4°C 2°C
18/03/19 01:50 EGXT 180150Z AUTO 28011KT 9999 BKN050/// 05/03 Q1014 W (280°) 12.7mph 5°C 3°C
18/03/19 00:50 EGXT 180050Z AUTO 29010KT 9999 SCT050/// 05/03 Q1013 WNW (290°) 11.5mph 5°C 3°C
17/03/19 23:50 EGXT 172350Z AUTO 29007KT 9999 FEW039/// SCT050/// 04/03 Q1012 WNW (290°) 8.1mph 4°C 3°C
17/03/19 22:50 EGXT 172250Z AUTO 27010KT 9999 NCD 04/02 Q1012 W (270°) 11.5mph 4°C 2°C
17/03/19 21:50 EGXT 172150Z AUTO 29014KT 9999 FEW050/// 06/03 Q1011 WNW (290°) 16.1mph 6°C 3°C
17/03/19 20:50 EGXT 172050Z AUTO 28012KT 9999 FEW040/// 05/02 Q1010 W (280°) 13.8mph 5°C 2°C
17/03/19 19:50 EGXT 171950Z AUTO 27011KT 9999 NCD 05/02 Q1009 W (270°) 12.7mph 5°C 2°C
17/03/19 18:50 EGXT 171850Z AUTO 27010KT 9999 SCT031/// 06/02 Q1007 W (270°) 11.5mph 6°C 2°C
17/03/19 17:50 EGXT 171750Z AUTO 27015KT 9999 NCD 06/01 Q1006 W (270°) 17.3mph 6°C 1°C
17/03/19 16:50 EGXT 171650Z AUTO 27020KT 9999 FEW033/// 08/01 Q1005 W (270°) 23.0mph 8°C 1°C
17/03/19 15:50 EGXT 171550Z AUTO 27019KT 9999 NCD 09/01 Q1004 W (270°) 21.9mph 9°C 1°C
17/03/19 14:50 EGXT 171450Z AUTO 26016KT 9999 SCT090/// 07/02 Q1004 RERA W (260°) 18.4mph 7°C 2°C
17/03/19 13:50 EGXT 171350Z AUTO 25016KT 9999 -RA BKN034/// BKN050/// 07/02 Q1003 -RA WSW (250°) 18.4mph 7°C 2°C
17/03/19 12:50 EGXT 171250Z AUTO 27019KT 9999 FEW044/// BKN050/// 08/M01 Q1003 W (270°) 21.9mph 8°C -1°C
17/03/19 11:50 EGXT 171150Z AUTO 27020KT 9999 FEW039/// BKN049/// 08/M00 Q1002 W (270°) 23.0mph 8°C 0°C
17/03/19 10:50 EGXT 171050Z AUTO 27020KT 9999 FEW034/// SCT039/// 07/01 Q1002 W (270°) 23.0mph 7°C 1°C
17/03/19 09:50 EGXT 170950Z AUTO 27020KT 9999 SCT028/// SCT032/// 06/01 Q1001 W (270°) 23.0mph 6°C 1°C
17/03/19 08:50 EGXT 170850Z AUTO 26017KT 9999 NCD 05/02 Q1000 W (260°) 19.6mph 5°C 2°C
17/03/19 07:50 EGXT 170750Z AUTO 25015KT 9999 NCD 04/02 Q0999 WSW (250°) 17.3mph 4°C 2°C
17/03/19 06:50 EGXT 170650Z AUTO 26016KT 9999 NCD 03/01 Q0998 W (260°) 18.4mph 3°C 1°C
17/03/19 05:50 EGXT 170550Z AUTO 26011KT 9999 FEW028/// 02/02 Q0997 REUP W (260°) 12.7mph 2°C 2°C
17/03/19 04:50 EGXT 170450Z AUTO 28017KT 9999 FEW015/// SCT050/// 03/02 Q0997 RERA W (280°) 19.6mph 3°C 2°C
17/03/19 03:50 EGXT 170350Z AUTO 29010KT 9999 -RADZ FEW014/// BKN021/// 04/03 Q0996 -RA -DZ WNW (290°) 11.5mph 4°C 3°C
17/03/19 02:50 EGXT 170250Z AUTO 27016KT 9999 BKN120/// 04/03 Q0995 W (270°) 18.4mph 4°C 3°C
17/03/19 01:50 EGXT 170150Z AUTO 26013KT 9999 FEW021/// SCT027/// BKN130/// 05/03 Q0994 W (260°) 15.0mph 5°C 3°C
17/03/19 00:50 EGXT 170050Z AUTO 24011KT 9999 FEW027/// BKN110/// 05/04 Q0994 WSW (240°) 12.7mph 5°C 4°C
16/03/19 23:50 EGXT 162350Z AUTO 26013KT 9999 SCT240/// 05/03 Q0993 W (260°) 15.0mph 5°C 3°C
16/03/19 22:50 EGXT 162250Z AUTO 27014KT 9999 FEW050/// BKN110/// BKN210/// 05/03 Q0993 RERA W (270°) 16.1mph 5°C 3°C
16/03/19 21:50 EGXT 162150Z AUTO 27016KT 9999 -RA BKN042/// 06/04 Q0992 -RA W (270°) 18.4mph 6°C 4°C
16/03/19 20:50 EGXT 162050Z AUTO 25019KT 8000 RA FEW020/// SCT033/// BKN042/// 08/07 Q0991 RA WSW (250°) 21.9mph 8°C 7°C
16/03/19 19:50 EGXT 161950Z AUTO 22020KT 9999 RA FEW016/// SCT021/// BKN027/// 09/08 Q0990 RA SW (220°) 23.0mph 9°C 8°C
16/03/19 18:50 EGXT 161850Z AUTO 21022KT 9999 -RA FEW013/// BKN025/// 10/08 Q0990 -RA SSW (210°) 25.3mph 10°C 8°C
16/03/19 17:50 EGXT 161750Z AUTO 21024G34KT 8000 -DZ SCT010/// BKN018/// 09/08 Q0991 -DZ SSW (210°) 27.6mph 39.1mph 9°C 8°C
16/03/19 16:50 EGXT 161650Z AUTO 21023KT 5000 -DZ BKN014/// 10/08 Q0992 -DZ SSW (210°) 26.5mph 10°C 8°C
16/03/19 15:50 EGXT 161550Z AUTO 22027G38KT 9999 OVC021/// 11/07 Q0992 SW (220°) 31.1mph 43.7mph 11°C 7°C
16/03/19 14:50 EGXT 161450Z AUTO 22022G33KT 9999 OVC025/// 12/07 Q0993 SW (220°) 25.3mph 38.0mph 12°C 7°C
16/03/19 13:50 EGXT 161350Z AUTO 22023KT 9999 OVC028/// 12/07 Q0994 SW (220°) 26.5mph 12°C 7°C
16/03/19 12:50 EGXT 161250Z AUTO 22026G37KT 9999 OVC027/// 12/06 Q0995 SW (220°) 29.9mph 42.6mph 12°C 6°C
16/03/19 11:50 EGXT 161150Z AUTO 22031G46KT 9999 BKN027/// 12/06 Q0996 SW (220°) 35.7mph 52.9mph 12°C 6°C
16/03/19 10:50 EGXT 161050Z AUTO 22030G43KT 9999 BKN026/// 12/07 Q0997 SW (220°) 34.5mph 49.5mph 12°C 7°C
16/03/19 09:50 EGXT 160950Z AUTO 22026G39KT 9999 BKN025/// BKN034/// 11/07 Q0998 SW (220°) 29.9mph 44.9mph 11°C 7°C
16/03/19 08:50 EGXT 160850Z AUTO 22025G37KT 9999 SCT023/// BKN031/// 11/07 Q0998 SW (220°) 28.8mph 42.6mph 11°C 7°C
16/03/19 07:50 EGXT 160750Z AUTO 22022KT 9999 SCT020/// BKN027/// BKN036/// 11/08 Q0999 SW (220°) 25.3mph 11°C 8°C
16/03/19 06:50 EGXT 160650Z AUTO 22023G33KT 9999 BKN018/// BKN027/// 10/08 Q0999 SW (220°) 26.5mph 38.0mph 10°C 8°C
16/03/19 05:50 EGXT 160550Z AUTO 22020KT 9999 BKN018/// BKN110/// 10/08 Q1001 SW (220°) 23.0mph 10°C 8°C
16/03/19 04:50 EGXT 160450Z AUTO 22019KT 9999 SCT017/// BKN050/// 10/09 Q1001 RERA SW (220°) 21.9mph 10°C 9°C
16/03/19 03:50 EGXT 160350Z AUTO 23017KT 9999 -RADZ SCT014/// SCT050/// 10/09 Q1002 -RA -DZ SW (230°) 19.6mph 10°C 9°C
16/03/19 02:50 EGXT 160250Z AUTO 19009KT 3900 RA SCT002/// BKN011/// 08/08 Q1003 RA S (190°) 10.4mph 8°C 8°C
16/03/19 01:50 EGXT 160150Z AUTO 17005KT 5000 RA FEW003/// SCT009/// BKN018/// 07/07 Q1004 RA S (170°) 5.8mph 7°C 7°C
16/03/19 00:50 EGXT 160050Z AUTO 20007KT 7000 RA FEW010/// BKN037/// 07/07 Q1006 RA SSW (200°) 8.1mph 7°C 7°C
15/03/19 23:50 EGXT 152350Z AUTO 21008KT 9999 -RA BKN043/// BKN050/// 08/06 Q1007 -RA SSW (210°) 9.2mph 8°C 6°C
15/03/19 22:50 EGXT 152250Z AUTO 23009KT 9999 BKN049/// 08/05 Q1008 SW (230°) 10.4mph 8°C 5°C
15/03/19 21:50 EGXT 152150Z AUTO 24006KT 9999 BKN080/// 08/04 Q1008 WSW (240°) 6.9mph 8°C 4°C
15/03/19 20:50 EGXT 152050Z AUTO 25004KT 9999 OVC130/// 07/03 Q1007 WSW (250°) 4.6mph 7°C 3°C
15/03/19 19:50 EGXT 151950Z AUTO 26008KT 9999 FEW150/// BKN180/// 08/04 Q1007 W (260°) 9.2mph 8°C 4°C
15/03/19 18:50 EGXT 151850Z AUTO 28010KT 9999 BKN038/// 09/03 Q1007 W (280°) 11.5mph 9°C 3°C
15/03/19 17:50 EGXT 151750Z AUTO 28018KT 9999 FEW050/// 10/03 Q1006 W (280°) 20.7mph 10°C 3°C
15/03/19 16:50 EGXT 151650Z AUTO 28020KT 9999 FEW048/// 11/02 Q1005 W (280°) 23.0mph 11°C 2°C
15/03/19 15:50 EGXT 151550Z 27023KT 9999 FEW042 BKN170 11/02 Q1004 BLU W (270°) 26.5mph 11°C 2°C
15/03/19 14:50 EGXT 151450Z 28021KT 9999 BKN038 BKN170 12/04 Q1003 BLU W (280°) 24.2mph 12°C 4°C
15/03/19 13:50 EGXT 151350Z 27026KT 9999 FEW045 BKN170 13/02 Q1003 BLU W (270°) 29.9mph 13°C 2°C
15/03/19 12:50 EGXT 151250Z 28028KT 9999 FEW038 BKN180 13/04 Q1003 BLU W (280°) 32.2mph 13°C 4°C
15/03/19 11:50 EGXT 151150Z 28025G35KT 9999 SCT042 BKN150 13/04 Q1002 BLU W (280°) 28.8mph 40.3mph 13°C 4°C
15/03/19 10:50 EGXT 151050Z 27026G37KT 9999 FEW028 SCT039 13/06 Q1001 BLU W (270°) 29.9mph 42.6mph 13°C 6°C
15/03/19 09:50 EGXT 150950Z 27023G33KT 9999 FEW010 SCT024 BKN038 12/09 Q1001 WHT W (270°) 26.5mph 38.0mph 12°C 9°C
15/03/19 08:50 EGXT 150850Z 25019G29KT 9999 SCT018 BKN027 12/10 Q1000 WHT WSW (250°) 21.9mph 33.4mph 12°C 10°C
15/03/19 08:24 EGXT 150824Z 25021KT 9999 -SHRA FEW012 BKN021 12/09 Q1000 WHT -SHRA WSW (250°) 24.2mph 12°C 9°C
15/03/19 07:50 EGXT 150750Z 26022KT 9999 SCT025 BKN160 12/09 Q1000 BLU W (260°) 25.3mph 12°C 9°C
15/03/19 06:50 EGXT 150650Z 26022G32KT 9999 BKN027 BKN160 12/09 Q0999 BLU W (260°) 25.3mph 36.8mph 12°C 9°C
15/03/19 05:50 EGXT 150550Z AUTO 26020KT 9999 BKN027/// SCT034/// 12/09 Q0999 W (260°) 23.0mph 12°C 9°C
15/03/19 04:50 EGXT 150450Z AUTO 24018KT 9999 BKN027/// SCT033/// 11/09 Q0999 WSW (240°) 20.7mph 11°C 9°C
15/03/19 03:50 EGXT 150350Z AUTO 24014KT 9999 BKN020/// SCT029/// 11/09 Q1000 RERA WSW (240°) 16.1mph 11°C 9°C
15/03/19 02:50 EGXT 150250Z AUTO 22011KT 9999 -DZ BKN017/// 09/08 Q1000 -DZ SW (220°) 12.7mph 9°C 8°C
15/03/19 01:50 EGXT 150150Z AUTO 20012KT 3100 -DZ FEW006/// SCT010/// BKN014/// 07/07 Q1001 -DZ SSW (200°) 13.8mph 7°C 7°C
15/03/19 00:50 EGXT 150050Z AUTO 22010KT 6000 -RA BKN020/// 07/06 Q1003 -RA SW (220°) 11.5mph 7°C 6°C
14/03/19 23:50 EGXT 142350Z AUTO 24013KT 9999 -RA OVC080/// 08/04 Q1004 -RA WSW (240°) 15.0mph 8°C 4°C
14/03/19 22:50 EGXT 142250Z AUTO 22009KT 9999 BKN070/// BKN140/// 09/04 Q1004 SW (220°) 10.4mph 9°C 4°C
14/03/19 21:50 EGXT 142150Z AUTO 24010KT 9999 OVC130/// 08/03 Q1005 WSW (240°) 11.5mph 8°C 3°C
14/03/19 20:50 EGXT 142050Z AUTO 25009KT 9999 FEW050/// BKN130/// 08/04 Q1005 WSW (250°) 10.4mph 8°C 4°C
14/03/19 19:50 EGXT 141950Z AUTO 26010KT 9999 SCT050/// SCT170/// BKN210/// 08/04 Q1005 W (260°) 11.5mph 8°C 4°C
14/03/19 18:50 EGXT 141850Z AUTO 26008KT 9999 FEW039/// SCT050/// 08/03 Q1005 W (260°) 9.2mph 8°C 3°C
14/03/19 17:50 EGXT 141750Z AUTO 28019KT 9999 FEW190/// 09/02 Q1004 W (280°) 21.9mph 9°C 2°C
14/03/19 16:50 EGXT 141650Z AUTO 29022KT 9999 SCT042/// 10/02 Q1003 WNW (290°) 25.3mph 10°C 2°C
14/03/19 15:50 EGXT 141550Z AUTO 28029G41KT 9999 NCD 11/02 Q1002 W (280°) 33.4mph 47.2mph 11°C 2°C
14/03/19 14:50 EGXT 141450Z 29022KT CAVOK 11/03 Q1001 BLU WNW (290°) 25.3mph 11°C 3°C
14/03/19 13:50 EGXT 141350Z 30025G37KT CAVOK 11/03 Q1000 BLU WNW (300°) 28.8mph 42.6mph 11°C 3°C
14/03/19 12:50 EGXT 141250Z 29030G44KT CAVOK 12/02 Q0999 BLU WNW (290°) 34.5mph 50.6mph 12°C 2°C
14/03/19 11:50 EGXT 141150Z 28031G50KT 9999 FEW038 SCT048 12/02 Q0998 BLU W (280°) 35.7mph 57.5mph 12°C 2°C
14/03/19 10:50 EGXT 141050Z 29023G33KT 9999 BKN048 11/05 Q0998 BLU WNW (290°) 26.5mph 38.0mph 11°C 5°C
14/03/19 09:50 EGXT 140950Z 29024G36KT 9999 FEW025 SCT030 11/06 Q0997 BLU WNW (290°) 27.6mph 41.4mph 11°C 6°C
14/03/19 09:10 EGXT 140910Z 28026KT 9999 FEW012 FEW025CB SCT050 09/07 Q0996 BLU W (280°) 29.9mph 9°C 7°C
14/03/19 07:50 EGXT 140750Z 24022KT 9999 -RA SCT012 BKN045 BKN150 09/08 Q0996 GRN -RA WSW (240°) 25.3mph 9°C 8°C
14/03/19 06:50 EGXT 140650Z AUTO 25022KT 9999 -RA FEW013/// SCT027/// 08/07 Q0997 -RA WSW (250°) 25.3mph 8°C 7°C
14/03/19 05:50 EGXT 140550Z AUTO 24023KT 9999 -RA SCT013/// BKN021/// 07/06 Q0998 -RA WSW (240°) 26.5mph 7°C 6°C
14/03/19 04:50 EGXT 140450Z AUTO 23020G31KT 9999 SCT015/// BKN021/// BKN027/// 07/05 Q1000 RERA SW (230°) 23.0mph 35.7mph 7°C 5°C
14/03/19 03:50 EGXT 140350Z AUTO 23019KT 9999 -RA BKN015/// SCT060/// 06/05 Q1002 -RA SW (230°) 21.9mph 6°C 5°C
14/03/19 02:50 EGXT 140250Z AUTO 23020KT 9999 BKN080/// BKN120/// 07/04 Q1004 SW (230°) 23.0mph 7°C 4°C
14/03/19 01:50 EGXT 140150Z AUTO 24019KT 9999 OVC090/// 07/04 Q1006 WSW (240°) 21.9mph 7°C 4°C
14/03/19 00:50 EGXT 140050Z AUTO 23014KT 9999 SCT090/// BKN200/// 06/03 Q1007 SW (230°) 16.1mph 6°C 3°C
13/03/19 23:50 EGXT 132350Z AUTO 24015KT 9999 FEW025/// BKN100/// BKN160/// 07/03 Q1008 WSW (240°) 17.3mph 7°C 3°C
13/03/19 22:50 EGXT 132250Z AUTO 25014KT 9999 FEW026/// BKN032/// BKN100/// 07/03 Q1009 WSW (250°) 16.1mph 7°C 3°C
13/03/19 21:50 EGXT 132150Z AUTO 25013KT 9999 SCT029/// BKN070/// 07/02 Q1009 WSW (250°) 15.0mph 7°C 2°C
13/03/19 20:50 EGXT 132050Z AUTO 23009KT 9999 BKN034/// BKN110/// 07/02 Q1010 SW (230°) 10.4mph 7°C 2°C
13/03/19 19:50 EGXT 131950Z AUTO 25009KT 9999 SCT042/// 07/01 Q1010 WSW (250°) 10.4mph 7°C 1°C
13/03/19 18:50 EGXT 131850Z AUTO 28016KT 9999 FEW040/// SCT190/// 07/01 Q1009 W (280°) 18.4mph 7°C 1°C
13/03/19 17:50 EGXT 131750Z AUTO 29019KT 9999 BKN038/// 08/02 Q1009 WNW (290°) 21.9mph 8°C 2°C
13/03/19 16:50 EGXT 131650Z AUTO 28023G33KT 9999 FEW032/// SCT045/// 09/02 Q1008 W (280°) 26.5mph 38.0mph 9°C 2°C
13/03/19 15:50 EGXT 131550Z AUTO 29026G40KT 9999 SCT034/// SCT042/// 09/03 Q1007 WNW (290°) 29.9mph 46.0mph 9°C 3°C
13/03/19 14:50 EGXT 131450Z 29023G34KT 9999 BKN032 BKN039 BKN048 10/03 Q1006 BLU WNW (290°) 26.5mph 39.1mph 10°C 3°C
13/03/19 13:50 EGXT 131350Z 29028G40KT 9999 BKN033 10/03 Q1005 BLU WNW (290°) 32.2mph 46.0mph 10°C 3°C
13/03/19 12:50 EGXT 131250Z 29028G40KT 9999 OVC035 10/03 Q1004 BLU WNW (290°) 32.2mph 46.0mph 10°C 3°C
13/03/19 11:50 EGXT 131150Z 28030G41KT 9999 BKN034 BKN045 09/03 Q1003 BLU W (280°) 34.5mph 47.2mph 9°C 3°C
13/03/19 10:50 EGXT 131050Z 28025G36KT 9999 FEW020 SCT032 BKN039 09/04 Q1002 BLU W (280°) 28.8mph 41.4mph 9°C 4°C
13/03/19 09:50 EGXT 130950Z 27028KT 9999 SCT020 SCT031 09/04 Q1000 WHT W (270°) 32.2mph 9°C 4°C
13/03/19 08:50 EGXT 130850Z 27029G39KT 5000 HZ SCT020 BKN034 07/05 Q1000 WHT HZ W (270°) 33.4mph 44.9mph 7°C 5°C
13/03/19 07:50 EGXT 130750Z 27032G42KT 9999 SCT030 SCT037 07/04 Q0999 BLU W (270°) 36.8mph 48.3mph 7°C 4°C
13/03/19 06:50 EGXT 130650Z 26028KT 9999 FEW025 BKN029 07/03 Q0997 BLU W (260°) 32.2mph 7°C 3°C
13/03/19 05:50 EGXT 130550Z AUTO 26027KT 9999 SCT021/// SCT028/// 06/03 Q0997 W (260°) 31.1mph 6°C 3°C
13/03/19 04:50 EGXT 130450Z AUTO 25025G35KT 9999 BKN022/// 06/03 Q0997 RERA WSW (250°) 28.8mph 40.3mph 6°C 3°C